KBIF/BIF METAR and TAF weather

Enter ICAO airport designator
Station Type Date Time Source
KBIF METAR 2018/01/16 08:58 UTC NOAA

KBIF 160858Z AUTO 04013KT 10SM CLR 00/M09 A3043 RMK AO2 SLP288 T10041088 51016 $


Station Type Date Time Source
KBIF Decoded METAR 2018/01/16 08:58 UTC NOAA

Biggs Army Air Field / Ft. Bliss, TX, United States (KBIF) 31-51N 106-23W
Jan 16, 2018 - 03:58 AM EST / 2018.01.16 0858 UTC
Wind: from the NE (040 degrees) at 15 MPH (13 KT):0
Visibility: 10 mile(s):0
Sky conditions: clear
Temperature: 31.3 F (-0.4 C)
Windchill: 21 F (-6 C):1
Dew Point: 16.2 F (-8.8 C)
Relative Humidity: 53%
Pressure (altimeter): 30.43 in. Hg (1030 hPa)
Pressure tendency: 0.05 inches (1.6 hPa) higher than three hours ago
ob: KBIF 160858Z AUTO 04013KT 10SM CLR 00/M09 A3043 RMK AO2 SLP288 T10041088 51016
cycle: 9

Station Type Date Time Source
KBIF TAF 2018/01/16 06:12 UTC NOAA

TAF KBIF 160611Z 1606/1712 07012G18KT 9999 SCT050 SCT150 510009 QNH3034INS
TEMPO 1606/1609 08020G30KT 520009
BECMG 1616/1617 10010G15KT 9999 FEW050 SCT150 QNH3041INS
BECMG 1702/1703 10009KT 9999 FEW100 QNH3041INS TX02/1622Z TNM02/1613Z


Example: see airport list